createdAt,value
2024-04-16T00:02:23.820Z,11.76
2024-04-16T00:04:50.864Z,11.94
2024-04-16T00:07:17.649Z,11.72
2024-04-16T00:09:44.427Z,11.85
2024-04-16T00:12:11.170Z,12.55
2024-04-16T00:15:05.124Z,12.13
2024-04-16T00:17:34.831Z,11.82
2024-04-16T00:20:01.799Z,11.75
2024-04-16T00:22:28.728Z,12.04
2024-04-16T00:24:55.407Z,12.25
2024-04-16T00:27:22.172Z,12.22
2024-04-16T00:29:48.883Z,12.45
2024-04-16T00:32:15.605Z,11.65
2024-04-16T00:34:42.378Z,11.44
2024-04-16T00:37:09.253Z,11.64
2024-04-16T00:39:36.322Z,11.67
2024-04-16T00:42:03.334Z,11.92
2024-04-16T00:44:30.046Z,11.96
2024-04-16T00:46:57.027Z,12.15
2024-04-16T00:49:24.178Z,11.83
2024-04-16T00:51:52.613Z,11.90
2024-04-16T00:54:19.824Z,12.00
2024-04-16T00:56:46.936Z,12.19
2024-04-16T00:59:15.081Z,11.86
2024-04-16T01:01:41.895Z,12.25
2024-04-16T01:04:08.843Z,12.61
2024-04-16T01:06:37.055Z,12.74
2024-04-16T01:09:04.146Z,12.13
2024-04-16T01:11:31.223Z,12.24
2024-04-16T01:13:58.328Z,12.26
2024-04-16T01:16:25.538Z,12.34
2024-04-16T01:18:52.494Z,12.60
2024-04-16T01:21:19.183Z,12.69
2024-04-16T01:23:45.890Z,12.85
2024-04-16T01:26:12.763Z,12.95
2024-04-16T01:28:39.481Z,12.34
2024-04-16T01:31:06.193Z,11.86
2024-04-16T01:33:32.889Z,12.37
2024-04-16T01:36:00.436Z,12.16
2024-04-16T01:38:27.223Z,12.20
2024-04-16T01:40:53.946Z,11.91
2024-04-16T01:43:20.895Z,12.23
2024-04-16T01:45:47.621Z,12.26
2024-04-16T01:48:14.474Z,12.19
2024-04-16T01:50:41.450Z,12.27
2024-04-16T01:53:08.519Z,12.25
2024-04-16T01:55:36.109Z,12.37
2024-04-16T01:58:04.254Z,11.99
2024-04-16T02:00:30.990Z,12.40
2024-04-16T02:03:01.197Z,11.81
2024-04-16T02:05:28.520Z,11.42
2024-04-16T02:07:55.316Z,11.35
2024-04-16T02:10:22.409Z,11.80
2024-04-16T02:12:49.343Z,12.30
2024-04-16T02:15:16.095Z,12.37
2024-04-16T02:17:42.941Z,12.21
2024-04-16T02:20:10.274Z,12.33
2024-04-16T02:22:37.013Z,11.90
2024-04-16T02:25:04.277Z,11.70
2024-04-16T02:27:30.980Z,12.07
2024-04-16T02:29:57.687Z,11.89
2024-04-16T02:32:24.464Z,11.80
2024-04-16T02:34:51.193Z,11.34
2024-04-16T02:37:17.872Z,11.89
2024-04-16T02:39:44.605Z,11.50
2024-04-16T02:42:12.113Z,11.52
2024-04-16T02:44:38.953Z,11.65
2024-04-16T02:47:06.460Z,11.90
2024-04-16T02:49:33.496Z,12.25
2024-04-16T02:52:00.383Z,11.66
2024-04-16T02:54:27.086Z,11.80
2024-04-16T02:56:53.797Z,11.97
2024-04-16T02:59:20.512Z,11.99
2024-04-16T03:01:47.303Z,11.65
2024-04-16T03:04:14.072Z,11.73
2024-04-16T03:06:40.795Z,12.23
2024-04-16T03:09:08.120Z,12.10
2024-04-16T03:11:34.924Z,11.45
2024-04-16T03:14:02.345Z,11.73
2024-04-16T03:16:29.099Z,11.82
2024-04-16T03:18:55.827Z,11.22
2024-04-16T03:21:25.554Z,11.29
2024-04-16T03:23:52.791Z,11.20
2024-04-16T03:26:19.532Z,11.47
2024-04-16T03:28:46.216Z,11.56
2024-04-16T03:31:12.949Z,12.14
2024-04-16T03:33:39.718Z,10.94
2024-04-16T03:36:06.664Z,11.27
2024-04-16T03:38:33.478Z,11.62
2024-04-16T03:41:04.342Z,11.55
2024-04-16T03:43:33.071Z,11.99
2024-04-16T03:46:00.865Z,11.64
2024-04-16T03:48:27.739Z,11.93
2024-04-16T03:50:54.654Z,11.90
2024-04-16T03:53:21.535Z,11.90
2024-04-16T03:55:48.296Z,11.67
2024-04-16T03:58:15.262Z,11.76
2024-04-16T04:01:01.062Z,11.93
2024-04-16T04:03:28.319Z,11.84
2024-04-16T04:05:55.761Z,11.76
2024-04-16T04:08:22.830Z,11.95
2024-04-16T04:10:49.721Z,11.89
2024-04-16T04:13:16.522Z,11.84
2024-04-16T04:15:43.581Z,11.86
2024-04-16T04:18:11.265Z,12.17
2024-04-16T04:20:41.255Z,12.66
2024-04-16T04:23:08.799Z,12.88
2024-04-16T04:25:35.767Z,13.06
2024-04-16T04:28:02.861Z,13.08
2024-04-16T04:30:29.734Z,12.83
2024-04-16T04:32:57.453Z,12.30
2024-04-16T04:35:24.189Z,12.73
2024-04-16T04:37:50.950Z,12.83
2024-04-16T04:40:17.841Z,12.54
2024-04-16T04:42:44.683Z,12.80
2024-04-16T04:45:11.394Z,12.55
2024-04-16T04:47:38.284Z,12.62
2024-04-16T04:50:05.599Z,12.45
2024-04-16T04:52:32.977Z,12.29
2024-04-16T04:55:03.222Z,12.39
2024-04-16T04:57:30.002Z,12.88
2024-04-16T04:59:56.716Z,12.40
2024-04-16T05:02:23.455Z,12.15
2024-04-16T05:04:50.254Z,12.39
2024-04-16T05:07:17.031Z,12.21
2024-04-16T05:09:43.769Z,12.18
2024-04-16T05:12:12.525Z,12.29
2024-04-16T05:14:40.605Z,12.73
2024-04-16T05:17:07.274Z,12.49
2024-04-16T05:19:34.770Z,12.65
2024-04-16T05:22:01.655Z,13.17
2024-04-16T05:24:28.411Z,13.18
2024-04-16T05:26:55.122Z,13.09
2024-04-16T05:29:21.839Z,12.72
2024-04-16T05:31:48.561Z,12.11
2024-04-16T05:34:15.882Z,12.44
2024-04-16T05:36:42.594Z,12.69
2024-04-16T05:39:09.475Z,12.81
2024-04-16T05:41:36.140Z,12.86
2024-04-16T05:44:02.879Z,12.79
2024-04-16T05:46:29.583Z,12.59
2024-04-16T05:48:56.324Z,12.68
2024-04-16T05:51:23.156Z,12.78
2024-04-16T05:53:49.904Z,12.98
2024-04-16T05:56:16.899Z,13.31
2024-04-16T05:58:43.788Z,12.77
2024-04-16T06:01:10.655Z,12.66
2024-04-16T06:03:37.424Z,12.16
2024-04-16T06:06:04.366Z,12.38
2024-04-16T06:08:31.245Z,13.23
2024-04-16T06:10:58.110Z,13.28
2024-04-16T06:13:24.837Z,13.61
2024-04-16T06:15:51.624Z,12.83
2024-04-16T06:18:18.361Z,12.86
2024-04-16T06:20:45.099Z,13.02
2024-04-16T06:23:11.769Z,13.12
2024-04-16T06:25:40.273Z,13.56
2024-04-16T06:28:07.091Z,13.73
2024-04-16T06:30:33.826Z,13.28
2024-04-16T06:33:00.698Z,13.59
2024-04-16T06:35:27.474Z,13.29
2024-04-16T06:37:54.170Z,12.95
2024-04-16T06:40:20.842Z,13.33
2024-04-16T06:42:47.639Z,13.25
2024-04-16T06:45:14.324Z,13.74
2024-04-16T06:47:41.129Z,13.85
2024-04-16T06:50:08.153Z,13.50
2024-04-16T06:52:34.977Z,13.44
2024-04-16T06:55:01.722Z,13.23
2024-04-16T06:57:28.673Z,13.11
2024-04-16T06:59:55.519Z,13.27
2024-04-16T07:02:22.306Z,14.02
2024-04-16T07:04:49.006Z,13.81
2024-04-16T07:07:15.722Z,14.10
2024-04-16T07:09:44.410Z,14.09
2024-04-16T07:12:11.125Z,14.12
2024-04-16T07:14:37.883Z,13.66
2024-04-16T07:17:05.242Z,13.93
2024-04-16T07:19:31.935Z,13.95
2024-04-16T07:21:58.651Z,14.83
2024-04-16T07:24:25.374Z,14.76
2024-04-16T07:26:52.420Z,14.74
2024-04-16T07:29:19.198Z,15.13
2024-04-16T07:31:49.863Z,15.09
2024-04-16T07:34:17.490Z,15.27
2024-04-16T07:36:44.191Z,14.93
2024-04-16T07:39:11.447Z,14.80
2024-04-16T07:41:38.185Z,14.73
2024-04-16T07:44:04.879Z,14.31
2024-04-16T07:46:34.755Z,14.44
2024-04-16T07:49:01.816Z,13.95
2024-04-16T07:51:28.589Z,14.44
2024-04-16T07:53:55.293Z,14.66
2024-04-16T07:56:22.619Z,15.26
2024-04-16T07:58:49.604Z,15.66
2024-04-16T08:01:18.146Z,15.93
2024-04-16T08:03:45.229Z,16.28
2024-04-16T08:06:12.119Z,16.19
2024-04-16T08:08:39.434Z,16.24
2024-04-16T08:11:15.717Z,16.39
2024-04-16T08:13:42.786Z,17.04
2024-04-16T08:16:09.972Z,16.26
2024-04-16T08:18:37.126Z,16.61
2024-04-16T08:21:03.857Z,16.29
2024-04-16T08:23:30.931Z,16.43
2024-04-16T08:26:07.880Z,15.97
2024-04-16T08:28:37.035Z,16.21
2024-04-16T08:31:04.398Z,16.05
2024-04-16T08:33:31.444Z,15.90
2024-04-16T08:35:58.903Z,16.08
2024-04-16T08:38:26.619Z,16.20
2024-04-16T08:40:53.735Z,16.43
2024-04-16T08:43:21.905Z,16.77
2024-04-16T08:45:50.706Z,16.23
2024-04-16T08:48:19.096Z,16.33
2024-04-16T08:50:47.336Z,16.19
2024-04-16T08:53:14.817Z,16.63
2024-04-16T08:55:43.038Z,16.46
2024-04-16T08:58:10.240Z,17.00
2024-04-16T09:00:37.371Z,17.05
2024-04-16T09:03:04.984Z,16.67
2024-04-16T09:05:31.862Z,16.64
2024-04-16T09:07:58.543Z,16.29
2024-04-16T09:10:26.270Z,17.23
2024-04-16T09:12:54.911Z,16.87
2024-04-16T09:15:22.273Z,16.97
2024-04-16T09:17:56.435Z,17.73
2024-04-16T09:20:26.629Z,17.56
2024-04-16T09:22:54.366Z,17.72
2024-04-16T09:25:26.260Z,17.51
2024-04-16T09:27:57.851Z,17.84
2024-04-16T09:30:25.267Z,17.78
2024-04-16T09:33:00.443Z,18.08
2024-04-16T09:35:28.670Z,17.74
2024-04-16T09:38:01.745Z,17.86
2024-04-16T09:40:31.033Z,18.19
2024-04-16T09:43:02.166Z,17.64
2024-04-16T09:45:31.523Z,17.77
2024-04-16T09:47:59.741Z,18.11
2024-04-16T09:50:42.146Z,17.79
2024-04-16T09:53:19.164Z,17.98
2024-04-16T09:55:47.570Z,18.10
2024-04-16T09:58:18.319Z,18.32
2024-04-16T10:00:45.536Z,18.40
2024-04-16T10:03:13.420Z,18.64
2024-04-16T10:05:40.148Z,18.83
2024-04-16T10:08:07.412Z,18.84
2024-04-16T10:10:34.576Z,18.79
2024-04-16T10:13:02.942Z,18.86
2024-04-16T10:15:29.955Z,19.22
2024-04-16T10:17:57.753Z,19.03
2024-04-16T10:20:29.520Z,19.59
2024-04-16T10:23:01.527Z,19.54
2024-04-16T10:25:33.880Z,20.06
2024-04-16T10:28:03.833Z,19.78
2024-04-16T10:30:32.376Z,19.53
2024-04-16T10:33:02.672Z,19.46
2024-04-16T10:35:30.132Z,19.84
2024-04-16T10:37:57.927Z,20.37
2024-04-16T10:40:29.134Z,20.59
2024-04-16T10:43:01.583Z,20.07
2024-04-16T10:45:30.319Z,20.16
2024-04-16T10:47:58.724Z,20.56
2024-04-16T10:50:25.601Z,20.26
2024-04-16T10:52:52.796Z,20.89
2024-04-16T10:55:19.603Z,21.17
2024-04-16T10:57:46.795Z,21.42
2024-04-16T11:00:16.750Z,21.95
2024-04-16T11:02:43.919Z,21.98
2024-04-16T11:05:10.723Z,21.81
2024-04-16T11:07:38.238Z,22.00
2024-04-16T11:10:05.934Z,21.16
2024-04-16T11:12:32.902Z,21.80
2024-04-16T11:14:59.814Z,22.15
2024-04-16T11:17:29.878Z,22.55
2024-04-16T11:19:57.642Z,22.67
2024-04-16T11:22:25.666Z,21.90
2024-04-16T11:24:54.688Z,22.27
2024-04-16T11:27:23.766Z,22.17
2024-04-16T11:29:51.096Z,22.03
2024-04-16T11:32:18.852Z,22.00
2024-04-16T11:34:46.978Z,22.36
2024-04-16T11:37:17.283Z,22.23
2024-04-16T11:39:44.633Z,22.20
2024-04-16T11:42:12.547Z,21.68
2024-04-16T11:44:40.400Z,21.74
2024-04-16T11:47:11.295Z,21.99
2024-04-16T11:49:41.613Z,21.48
2024-04-16T11:52:08.478Z,21.76
2024-04-16T11:54:36.780Z,22.04
2024-04-16T11:57:05.496Z,22.11
2024-04-16T11:59:32.772Z,21.90
2024-04-16T12:01:59.975Z,21.56
2024-04-16T12:04:27.951Z,21.36
2024-04-16T12:06:55.574Z,21.10
2024-04-16T12:09:22.253Z,21.20
2024-04-16T12:11:49.013Z,21.43
2024-04-16T12:14:15.970Z,21.43
2024-04-16T12:16:42.746Z,20.92
2024-04-16T12:19:10.096Z,21.33
2024-04-16T12:21:37.320Z,21.64
2024-04-16T12:24:04.605Z,21.78
2024-04-16T12:26:31.288Z,21.52
2024-04-16T12:28:59.870Z,21.75
2024-04-16T12:31:27.114Z,21.76
2024-04-16T12:33:54.290Z,21.80
2024-04-16T12:36:21.056Z,22.13
2024-04-16T12:38:47.756Z,22.32
2024-04-16T12:41:14.427Z,22.41
2024-04-16T12:43:41.237Z,22.51
2024-04-16T12:46:08.690Z,22.10
2024-04-16T12:48:36.573Z,22.08
2024-04-16T12:51:03.474Z,22.57
2024-04-16T12:53:30.711Z,22.69
2024-04-16T12:55:57.406Z,22.85
2024-04-16T12:58:24.099Z,22.25
2024-04-16T13:00:50.875Z,19.93
2024-04-16T13:03:17.836Z,17.98
2024-04-16T13:05:46.003Z,17.72
2024-04-16T13:08:14.713Z,17.19
2024-04-16T13:10:42.759Z,17.44
2024-04-16T13:13:09.550Z,17.01
2024-04-16T13:15:36.255Z,16.69
2024-04-16T13:18:03.998Z,17.03
2024-04-16T13:20:31.068Z,16.94
2024-04-16T13:22:57.780Z,17.20
2024-04-16T13:25:24.618Z,17.62
2024-04-16T13:27:51.422Z,18.01
2024-04-16T13:30:18.222Z,18.05
2024-04-16T13:32:45.440Z,17.90
2024-04-16T13:35:12.376Z,17.99
2024-04-16T13:37:39.255Z,18.05
2024-04-16T13:40:09.940Z,17.79
2024-04-16T13:42:38.617Z,17.79
2024-04-16T13:45:06.428Z,17.13
2024-04-16T13:47:33.518Z,17.19
2024-04-16T13:50:00.328Z,17.85
2024-04-16T13:52:27.164Z,18.28
2024-04-16T13:54:53.870Z,19.01
2024-04-16T13:57:20.552Z,19.19
2024-04-16T13:59:47.528Z,19.21
2024-04-16T14:02:14.453Z,19.52
2024-04-16T14:04:41.359Z,20.01
2024-04-16T14:07:08.150Z,20.72
2024-04-16T14:09:35.349Z,20.91
2024-04-16T14:12:02.112Z,20.82
2024-04-16T14:14:28.828Z,20.89
2024-04-16T14:16:55.603Z,20.85
2024-04-16T14:19:22.445Z,20.47
2024-04-16T14:21:49.568Z,19.22
2024-04-16T14:24:20.117Z,19.63
2024-04-16T14:26:46.786Z,19.51
2024-04-16T14:29:13.504Z,19.97
2024-04-16T14:31:41.243Z,19.72
2024-04-16T14:34:08.148Z,19.75
2024-04-16T14:36:34.950Z,19.70
2024-04-16T14:39:01.844Z,19.51
2024-04-16T14:41:29.601Z,19.35
2024-04-16T14:43:56.292Z,19.63
2024-04-16T14:46:23.421Z,19.69
2024-04-16T14:48:50.340Z,19.31
2024-04-16T14:51:17.117Z,19.32
2024-04-16T14:53:47.516Z,19.86
2024-04-16T14:56:14.391Z,19.64
2024-04-16T14:58:41.273Z,19.36
2024-04-16T15:01:08.097Z,19.01
2024-04-16T15:03:35.739Z,19.19
2024-04-16T15:06:02.545Z,18.67
2024-04-16T15:08:29.274Z,18.67
2024-04-16T15:10:56.009Z,19.03
2024-04-16T15:13:23.456Z,18.68
2024-04-16T15:15:59.863Z,18.49
2024-04-16T15:18:27.610Z,17.79
2024-04-16T15:20:55.115Z,17.57
2024-04-16T15:23:21.793Z,17.69
2024-04-16T15:25:48.678Z,17.48
2024-04-16T15:28:16.446Z,17.69
2024-04-16T15:30:43.363Z,17.08
2024-04-16T15:33:10.403Z,16.89
2024-04-16T15:35:47.787Z,17.62
2024-04-16T15:38:14.867Z,16.96
2024-04-16T15:40:42.033Z,16.71
2024-04-16T15:43:08.892Z,16.95
2024-04-16T15:45:35.631Z,17.27
2024-04-16T15:48:02.405Z,17.61
2024-04-16T15:50:29.223Z,17.09
2024-04-16T15:52:56.781Z,17.04
2024-04-16T15:55:23.523Z,16.12
2024-04-16T15:57:50.197Z,15.58
2024-04-16T16:00:17.597Z,15.12
2024-04-16T16:02:46.577Z,14.67
2024-04-16T16:05:13.568Z,15.05
2024-04-16T16:07:40.318Z,15.12
2024-04-16T16:10:10.263Z,15.19
2024-04-16T16:12:37.294Z,15.61
2024-04-16T16:15:04.160Z,15.65
2024-04-16T16:17:30.988Z,15.92
2024-04-16T16:19:58.186Z,15.97
2024-04-16T16:22:25.076Z,16.56
2024-04-16T16:24:52.683Z,16.86
2024-04-16T16:27:19.713Z,17.39
2024-04-16T16:29:46.497Z,17.59
2024-04-16T16:32:15.210Z,16.86
2024-04-16T16:34:42.414Z,17.25
2024-04-16T16:37:09.278Z,17.41
2024-04-16T16:39:36.016Z,17.36
2024-04-16T16:42:02.670Z,17.35
2024-04-16T16:44:29.391Z,17.77
2024-04-16T16:46:56.136Z,17.69
2024-04-16T16:49:22.846Z,18.08
2024-04-16T16:51:51.971Z,18.26
2024-04-16T16:54:18.700Z,18.42
2024-04-16T16:56:45.381Z,18.37
2024-04-16T16:59:12.067Z,18.40
2024-04-16T17:01:38.869Z,18.37
2024-04-16T17:04:05.642Z,18.59
2024-04-16T17:06:32.550Z,18.49
2024-04-16T17:08:59.799Z,18.63
2024-04-16T17:11:26.489Z,18.38
2024-04-16T17:13:53.261Z,18.42
2024-04-16T17:16:20.100Z,18.43
2024-04-16T17:18:46.890Z,18.15
2024-04-16T17:21:13.622Z,18.17
2024-04-16T17:23:40.415Z,18.37
2024-04-16T17:26:07.522Z,18.41
2024-04-16T17:28:34.334Z,18.22
2024-04-16T17:31:01.101Z,17.99
2024-04-16T17:33:27.903Z,18.08
2024-04-16T17:35:54.648Z,18.15
2024-04-16T17:38:21.489Z,17.88
2024-04-16T17:40:48.476Z,17.49
2024-04-16T17:43:15.364Z,17.44
2024-04-16T17:45:42.154Z,17.48
2024-04-16T17:48:09.978Z,17.23
2024-04-16T17:50:37.342Z,17.02
2024-04-16T17:53:04.195Z,16.83
2024-04-16T17:55:31.378Z,16.62
2024-04-16T17:57:58.247Z,16.23
2024-04-16T18:00:26.780Z,16.60
2024-04-16T18:02:53.690Z,16.27
2024-04-16T18:05:20.890Z,16.16
2024-04-16T18:07:47.737Z,16.66
2024-04-16T18:10:15.496Z,16.82
2024-04-16T18:12:42.232Z,16.85
2024-04-16T18:15:10.052Z,17.07
2024-04-16T18:17:37.112Z,16.88
2024-04-16T18:20:04.310Z,16.89
2024-04-16T18:22:31.740Z,16.92
2024-04-16T18:24:58.603Z,16.74
2024-04-16T18:27:25.493Z,17.07
2024-04-16T18:29:52.235Z,17.24
2024-04-16T18:32:19.058Z,17.18
2024-04-16T18:34:47.918Z,17.30
2024-04-16T18:37:16.110Z,17.30
2024-04-16T18:39:42.911Z,17.46
2024-04-16T18:42:10.865Z,17.20
2024-04-16T18:44:38.131Z,17.61
2024-04-16T18:47:06.111Z,17.97
2024-04-16T18:49:33.096Z,18.22
2024-04-16T18:51:59.841Z,18.26
2024-04-16T18:54:26.737Z,18.39
2024-04-16T18:56:53.690Z,18.11
2024-04-16T18:59:20.756Z,17.77
2024-04-16T19:01:47.584Z,18.00
2024-04-16T19:04:14.467Z,17.60
2024-04-16T19:06:41.876Z,17.78
2024-04-16T19:09:08.811Z,17.88
2024-04-16T19:11:38.286Z,18.12
2024-04-16T19:14:05.413Z,18.13
2024-04-16T19:16:32.246Z,18.16
2024-04-16T19:18:59.013Z,17.97
2024-04-16T19:21:25.667Z,17.93
2024-04-16T19:23:52.534Z,17.89
2024-04-16T19:26:19.434Z,17.96
2024-04-16T19:28:46.820Z,18.03
2024-04-16T19:31:13.627Z,18.03
2024-04-16T19:33:40.715Z,18.11
2024-04-16T19:36:08.008Z,18.13
2024-04-16T19:38:36.122Z,18.16
2024-04-16T19:41:02.884Z,18.03
2024-04-16T19:43:29.594Z,18.01
2024-04-16T19:45:57.190Z,17.87
2024-04-16T19:48:24.062Z,17.95
2024-04-16T19:50:50.758Z,17.91
2024-04-16T19:53:17.508Z,17.85
2024-04-16T19:55:45.278Z,17.64
2024-04-16T19:58:12.054Z,17.89
2024-04-16T20:00:38.914Z,17.93
2024-04-16T20:03:05.893Z,18.03
2024-04-16T20:05:36.276Z,18.01
2024-04-16T20:08:03.477Z,17.92
2024-04-16T20:10:30.310Z,17.97
2024-04-16T20:12:57.764Z,17.99
2024-04-16T20:15:24.584Z,17.89
2024-04-16T20:17:51.504Z,17.81
2024-04-16T20:20:18.513Z,17.76
2024-04-16T20:22:47.700Z,17.81
2024-04-16T20:25:18.831Z,17.52
2024-04-16T20:27:46.013Z,17.54
2024-04-16T20:30:13.018Z,17.60
2024-04-16T20:32:39.832Z,17.29
2024-04-16T20:35:06.672Z,17.13
2024-04-16T20:37:33.409Z,16.89
2024-04-16T20:40:00.258Z,16.83
2024-04-16T20:42:27.101Z,16.70
2024-04-16T20:44:53.796Z,16.70
2024-04-16T20:47:20.520Z,16.58
2024-04-16T20:49:47.799Z,16.56
2024-04-16T20:52:14.560Z,16.80
2024-04-16T20:54:41.291Z,16.89
2024-04-16T20:57:07.992Z,17.00
2024-04-16T20:59:35.134Z,16.55
2024-04-16T21:02:03.755Z,16.35
2024-04-16T21:04:30.471Z,16.36
2024-04-16T21:06:57.355Z,16.54
2024-04-16T21:09:24.040Z,16.60
2024-04-16T21:11:50.730Z,16.55
2024-04-16T21:14:17.503Z,16.52
2024-04-16T21:16:44.274Z,16.39
2024-04-16T21:19:10.943Z,16.43
2024-04-16T21:21:38.151Z,16.44
2024-04-16T21:24:05.953Z,16.64
2024-04-16T21:26:32.766Z,16.82
2024-04-16T21:28:59.658Z,16.89
2024-04-16T21:31:26.461Z,16.93
2024-04-16T21:33:53.155Z,17.11
2024-04-16T21:36:19.866Z,17.09
2024-04-16T21:38:46.542Z,17.04
2024-04-16T21:41:13.196Z,17.00
2024-04-16T21:43:40.929Z,16.92
2024-04-16T21:46:07.716Z,16.99
2024-04-16T21:48:34.463Z,17.13
2024-04-16T21:51:01.158Z,17.25
2024-04-16T21:53:28.011Z,17.30
2024-04-16T21:55:54.826Z,17.30
2024-04-16T21:58:21.539Z,17.32
2024-04-16T22:00:48.250Z,17.31
2024-04-16T22:03:15.189Z,17.24
2024-04-16T22:05:41.993Z,17.35
2024-04-16T22:08:08.719Z,17.27
2024-04-16T22:10:35.546Z,17.21
2024-04-16T22:13:02.292Z,17.18
2024-04-16T22:15:29.025Z,17.26
2024-04-16T22:17:55.813Z,17.22
2024-04-16T22:20:22.617Z,17.20
2024-04-16T22:22:49.371Z,17.14
2024-04-16T22:25:16.094Z,17.08
2024-04-16T22:27:42.766Z,17.00
2024-04-16T22:30:09.950Z,16.91
2024-04-16T22:32:36.773Z,16.83
2024-04-16T22:35:03.633Z,16.71
2024-04-16T22:37:30.748Z,16.55
2024-04-16T22:39:57.444Z,16.54
2024-04-16T22:42:24.173Z,16.48
2024-04-16T22:44:50.891Z,16.34
2024-04-16T22:47:17.597Z,16.21
2024-04-16T22:49:44.347Z,16.18
2024-04-16T22:52:11.027Z,16.10
2024-04-16T22:54:37.767Z,15.95
2024-04-16T22:57:04.647Z,15.71
2024-04-16T22:59:31.395Z,15.49
2024-04-16T23:02:01.100Z,15.37
2024-04-16T23:04:29.315Z,15.21
2024-04-16T23:06:56.224Z,15.32
2024-04-16T23:09:22.931Z,14.88
2024-04-16T23:11:49.741Z,14.77
2024-04-16T23:14:16.423Z,14.82
2024-04-16T23:16:43.496Z,14.69
2024-04-16T23:19:10.167Z,14.70
2024-04-16T23:21:37.900Z,14.30
2024-04-16T23:24:04.846Z,14.70
2024-04-16T23:26:31.586Z,14.89
2024-04-16T23:28:58.377Z,14.78
2024-04-16T23:31:25.120Z,15.05
2024-04-16T23:33:51.806Z,15.22
2024-04-16T23:36:18.956Z,15.18
2024-04-16T23:38:45.649Z,15.19
2024-04-16T23:41:12.333Z,15.29
2024-04-16T23:43:39.078Z,15.24
2024-04-16T23:46:05.861Z,15.06
2024-04-16T23:48:32.776Z,15.22
2024-04-16T23:50:59.843Z,15.00
2024-04-16T23:53:26.555Z,14.95
2024-04-16T23:55:53.368Z,14.71
2024-04-16T23:58:20.120Z,14.89
